createdAt,value
2019-04-16T00:02:09.738Z,40.93
2019-04-16T00:05:18.759Z,41.20
2019-04-16T00:07:59.696Z,38.97
2019-04-16T00:10:43.079Z,40.63
2019-04-16T00:13:42.679Z,39.30
2019-04-16T00:16:17.578Z,38.87
2019-04-16T00:18:58.123Z,40.50
2019-04-16T00:21:50.719Z,41.30
2019-04-16T00:24:31.179Z,38.63
2019-04-16T00:27:05.946Z,39.60
2019-04-16T00:29:40.757Z,38.93
2019-04-16T00:32:20.862Z,39.20
2019-04-16T00:34:55.604Z,38.80
2019-04-16T00:37:30.322Z,39.70
2019-04-16T00:40:06.178Z,39.80
2019-04-16T00:42:40.904Z,39.47
2019-04-16T00:45:15.804Z,40.57
2019-04-16T00:47:51.447Z,39.30
2019-04-16T00:50:26.919Z,39.90
2019-04-16T00:53:07.606Z,40.83
2019-04-16T00:55:42.330Z,40.00
2019-04-16T00:58:19.470Z,41.33
2019-04-16T01:00:53.789Z,40.23
2019-04-16T01:03:28.516Z,41.20
2019-04-16T01:06:06.769Z,41.17
2019-04-16T01:08:53.626Z,39.37
2019-04-16T01:11:17.410Z,39.33
2019-04-16T01:13:53.223Z,40.87
2019-04-16T01:16:30.286Z,40.07
2019-04-16T01:19:09.529Z,39.57
2019-04-16T01:21:44.532Z,38.90
2019-04-16T01:24:20.325Z,39.00
2019-04-16T01:26:55.461Z,39.57
2019-04-16T01:29:33.852Z,39.00
2019-04-16T01:32:42.432Z,39.47
2019-04-16T01:35:27.909Z,38.63
2019-04-16T01:38:36.888Z,39.67
2019-04-16T01:41:13.881Z,39.03
2019-04-16T01:43:48.610Z,38.83
2019-04-16T01:46:23.427Z,39.90
2019-04-16T01:48:58.311Z,40.20
2019-04-16T01:51:33.072Z,39.30
2019-04-16T01:54:07.815Z,39.90
2019-04-16T01:56:42.572Z,41.27
2019-04-16T01:59:17.294Z,40.83
2019-04-16T02:01:52.053Z,41.17
2019-04-16T02:04:26.789Z,39.33
2019-04-16T02:07:01.537Z,40.83
2019-04-16T02:09:36.271Z,39.33
2019-04-16T02:12:13.234Z,39.40
2019-04-16T02:14:50.460Z,39.07
2019-04-16T02:17:26.699Z,39.17
2019-04-16T02:20:02.002Z,40.13
2019-04-16T02:22:38.606Z,39.43
2019-04-16T02:25:13.523Z,39.20
2019-04-16T02:27:48.496Z,38.37
2019-04-16T02:30:23.332Z,39.57
2019-04-16T02:32:58.132Z,40.07
2019-04-16T02:35:32.975Z,39.57
2019-04-16T02:38:12.382Z,40.17
2019-04-16T02:40:51.412Z,40.17
2019-04-16T02:43:21.289Z,39.97
2019-04-16T02:45:58.078Z,40.33
2019-04-16T02:48:32.792Z,40.87
2019-04-16T02:51:32.167Z,41.87
2019-04-16T02:54:44.419Z,40.37
2019-04-16T02:57:47.251Z,40.10
2019-04-16T03:00:41.114Z,40.57
2019-04-16T03:03:22.216Z,39.47
2019-04-16T03:06:00.692Z,40.40
2019-04-16T03:08:36.239Z,39.07
2019-04-16T03:11:13.650Z,40.17
2019-04-16T03:13:47.272Z,39.63
2019-04-16T03:16:56.246Z,39.70
2019-04-16T03:19:34.514Z,39.80
2019-04-16T03:22:09.514Z,40.23
2019-04-16T03:24:44.350Z,40.77
2019-04-16T03:27:21.921Z,39.57
2019-04-16T03:29:55.711Z,40.33
2019-04-16T03:32:35.355Z,39.40
2019-04-16T03:35:07.374Z,37.43
2019-04-16T03:37:42.239Z,39.83
2019-04-16T03:40:18.932Z,42.00
2019-04-16T03:42:58.975Z,40.40
2019-04-16T03:45:30.239Z,40.13
2019-04-16T03:48:05.404Z,40.13
2019-04-16T03:50:40.155Z,40.50
2019-04-16T03:53:17.475Z,40.50
2019-04-16T03:55:51.386Z,40.27
2019-04-16T03:58:26.238Z,40.03
2019-04-16T04:01:01.138Z,40.53
2019-04-16T04:03:35.995Z,40.40
2019-04-16T04:06:10.782Z,40.93
2019-04-16T04:08:48.269Z,41.63
2019-04-16T04:11:22.071Z,40.17
2019-04-16T04:13:56.815Z,39.87
2019-04-16T04:16:33.610Z,39.57
2019-04-16T04:19:08.054Z,40.30
2019-04-16T04:21:42.888Z,41.70
2019-04-16T04:24:17.799Z,40.43
2019-04-16T04:26:52.627Z,40.40
2019-04-16T04:29:29.328Z,40.70
2019-04-16T04:32:04.378Z,41.87
2019-04-16T04:34:39.298Z,41.03
2019-04-16T04:37:14.329Z,40.63
2019-04-16T04:39:49.347Z,40.73
2019-04-16T04:42:25.650Z,40.37
2019-04-16T04:45:01.691Z,39.77
2019-04-16T04:47:36.579Z,39.73
2019-04-16T04:50:11.638Z,40.97
2019-04-16T04:52:46.831Z,39.97
2019-04-16T04:55:23.384Z,39.43
2019-04-16T04:58:02.451Z,39.53
2019-04-16T05:00:37.443Z,38.83
2019-04-16T05:03:16.792Z,38.47
2019-04-16T05:05:56.045Z,36.97
2019-04-16T05:08:30.979Z,42.13
2019-04-16T05:11:05.819Z,40.80
2019-04-16T05:13:40.558Z,39.30
2019-04-16T05:16:15.615Z,39.17
2019-04-16T05:18:50.466Z,38.87
2019-04-16T05:21:25.320Z,39.43
2019-04-16T05:24:00.144Z,38.70
2019-04-16T05:26:36.488Z,39.77
2019-04-16T05:29:16.065Z,39.23
2019-04-16T05:31:49.781Z,39.73
2019-04-16T05:34:24.603Z,40.93
2019-04-16T05:36:59.438Z,41.57
2019-04-16T05:39:34.327Z,41.23
2019-04-16T05:42:09.131Z,40.30
2019-04-16T05:44:43.983Z,40.10
2019-04-16T05:47:18.903Z,39.47
2019-04-16T05:49:54.391Z,40.80
2019-04-16T05:52:32.256Z,40.23
2019-04-16T05:55:22.768Z,41.80
2019-04-16T05:57:58.173Z,44.13
2019-04-16T06:00:51.467Z,40.27
2019-04-16T06:03:26.322Z,41.83
2019-04-16T06:06:01.165Z,40.47
2019-04-16T06:08:40.414Z,40.57
2019-04-16T06:11:26.570Z,40.97
2019-04-16T06:14:06.634Z,43.40
2019-04-16T06:17:00.527Z,42.17
2019-04-16T06:19:54.498Z,41.57
2019-04-16T06:22:40.908Z,42.90
2019-04-16T06:25:50.018Z,41.90
2019-04-16T06:28:43.839Z,40.90
2019-04-16T06:31:31.364Z,42.23
2019-04-16T06:34:16.646Z,41.37
2019-04-16T06:37:13.571Z,40.70
2019-04-16T06:40:10.282Z,43.50
2019-04-16T06:42:55.909Z,42.77
2019-04-16T06:45:58.715Z,41.57
2019-04-16T06:48:36.966Z,42.77
2019-04-16T06:51:22.186Z,42.50
2019-04-16T06:54:15.839Z,46.40
2019-04-16T06:57:09.678Z,51.03
2019-04-16T06:59:56.328Z,44.37
2019-04-16T07:02:44.052Z,44.00
2019-04-16T07:05:32.968Z,42.67
2019-04-16T07:08:37.505Z,41.67
2019-04-16T07:11:06.853Z,43.17
2019-04-16T07:13:42.179Z,43.67
2019-04-16T07:16:17.974Z,47.30
2019-04-16T07:18:52.799Z,48.53
2019-04-16T07:21:27.643Z,43.13
2019-04-16T07:24:02.464Z,44.03
2019-04-16T07:26:39.523Z,44.47
2019-04-16T07:29:32.738Z,44.07
2019-04-16T07:32:31.274Z,42.80
2019-04-16T07:35:28.972Z,42.20
2019-04-16T07:38:38.931Z,44.13
2019-04-16T07:41:22.896Z,44.07
2019-04-16T07:44:07.861Z,44.10
2019-04-16T07:47:00.488Z,42.47
2019-04-16T07:49:55.947Z,44.70
2019-04-16T07:52:54.598Z,45.67
2019-04-16T07:55:48.411Z,44.90
2019-04-16T07:58:23.255Z,45.47
2019-04-16T08:00:58.251Z,44.33
2019-04-16T08:03:33.075Z,44.27
2019-04-16T08:06:10.663Z,44.23
2019-04-16T08:08:44.347Z,45.03
2019-04-16T08:11:19.160Z,44.53
2019-04-16T08:13:53.911Z,44.63
2019-04-16T08:16:28.742Z,44.00
2019-04-16T08:19:03.797Z,46.23
2019-04-16T08:21:40.653Z,46.20
2019-04-16T08:24:24.681Z,45.43
2019-04-16T08:27:00.454Z,45.90
2019-04-16T08:29:35.186Z,46.33
2019-04-16T08:32:13.029Z,45.90
2019-04-16T08:34:47.569Z,46.60
2019-04-16T08:37:22.402Z,45.80
2019-04-16T08:39:57.289Z,46.30
2019-04-16T08:42:43.944Z,46.33
2019-04-16T08:45:08.949Z,46.63
2019-04-16T08:47:45.156Z,45.73
2019-04-16T08:50:25.884Z,52.27
2019-04-16T08:52:57.426Z,46.10
2019-04-16T08:55:32.255Z,47.30
2019-04-16T08:58:07.715Z,47.70
2019-04-16T09:00:46.644Z,47.47
2019-04-16T09:03:21.845Z,47.60
2019-04-16T09:05:56.598Z,46.70
2019-04-16T09:08:46.199Z,46.37
2019-04-16T09:11:23.680Z,45.43
2019-04-16T09:14:01.127Z,45.57
2019-04-16T09:16:43.586Z,46.23
2019-04-16T09:19:18.599Z,45.70
2019-04-16T09:21:53.501Z,47.37
2019-04-16T09:24:48.590Z,45.90
2019-04-16T09:27:41.895Z,47.30
2019-04-16T09:30:41.996Z,47.10
2019-04-16T09:33:21.874Z,46.70
2019-04-16T09:36:14.715Z,46.42
2019-04-16T09:39:08.608Z,45.63
2019-04-16T09:41:46.143Z,46.07
2019-04-16T09:44:21.143Z,45.73
2019-04-16T09:46:59.427Z,46.80
2019-04-16T09:49:34.400Z,46.33
2019-04-16T09:52:09.241Z,45.17
2019-04-16T09:54:44.604Z,46.50
2019-04-16T09:57:20.099Z,45.60
2019-04-16T10:00:02.454Z,45.73
2019-04-16T10:02:38.030Z,45.63
2019-04-16T10:05:13.037Z,45.77
2019-04-16T10:07:47.867Z,44.53
2019-04-16T10:10:24.248Z,46.73
2019-04-16T10:12:59.151Z,44.63
2019-04-16T10:15:34.148Z,44.03
2019-04-16T10:18:09.050Z,46.07
2019-04-16T10:20:43.951Z,43.20
2019-04-16T10:23:26.352Z,44.03
2019-04-16T10:26:04.164Z,44.13
2019-04-16T10:28:39.955Z,44.73
2019-04-16T10:31:17.870Z,45.73
2019-04-16T10:33:52.675Z,43.37
2019-04-16T10:36:27.630Z,41.93
2019-04-16T10:39:13.133Z,40.90
2019-04-16T10:41:56.556Z,40.12
2019-04-16T10:44:50.286Z,40.05
2019-04-16T10:47:53.208Z,41.57
2019-04-16T10:50:56.014Z,40.40
2019-04-16T10:53:45.978Z,41.10
2019-04-16T10:56:46.161Z,42.20
2019-04-16T10:59:39.104Z,42.90
2019-04-16T11:02:32.819Z,41.20
2019-04-16T11:05:26.870Z,39.57
2019-04-16T11:08:04.198Z,38.70
2019-04-16T11:10:39.253Z,38.90
2019-04-16T11:13:26.945Z,36.95
2019-04-16T11:16:07.102Z,37.88
2019-04-16T11:18:42.031Z,40.33
2019-04-16T11:21:17.067Z,38.75
2019-04-16T11:23:52.014Z,38.17
2019-04-16T11:26:26.983Z,38.63
2019-04-16T11:29:01.865Z,39.48
2019-04-16T11:31:37.418Z,40.43
2019-04-16T11:34:14.275Z,41.37
2019-04-16T11:36:49.070Z,41.40
2019-04-16T11:39:23.950Z,41.93
2019-04-16T11:41:58.911Z,41.23
2019-04-16T11:44:36.491Z,41.63
2019-04-16T11:47:12.007Z,40.58
2019-04-16T11:49:52.539Z,40.58
2019-04-16T11:52:27.852Z,39.63
2019-04-16T11:55:02.879Z,40.58
2019-04-16T11:57:39.075Z,42.83
2019-04-16T12:00:17.736Z,41.80
2019-04-16T12:03:04.235Z,39.88
2019-04-16T12:05:54.577Z,39.78
2019-04-16T12:08:45.085Z,38.98
2019-04-16T12:11:27.712Z,38.23
2019-04-16T12:14:13.139Z,38.90
2019-04-16T12:17:02.514Z,37.90
2019-04-16T12:20:08.539Z,39.55
2019-04-16T12:22:58.121Z,39.05
2019-04-16T12:26:08.742Z,39.08
2019-04-16T12:28:51.116Z,37.40
2019-04-16T12:31:45.243Z,39.08
2019-04-16T12:34:41.974Z,39.50
2019-04-16T12:37:49.578Z,38.38
2019-04-16T12:41:05.786Z,38.00
2019-04-16T12:43:50.827Z,38.40
2019-04-16T12:46:35.314Z,38.25
2019-04-16T12:49:28.228Z,38.00
2019-04-16T12:52:17.213Z,38.30
2019-04-16T12:55:11.587Z,39.38
2019-04-16T12:58:02.076Z,39.63
2019-04-16T13:00:45.422Z,39.55
2019-04-16T13:03:28.883Z,38.75
2019-04-16T13:06:31.133Z,38.92
2019-04-16T13:09:25.856Z,38.28
2019-04-16T13:12:18.404Z,38.35
2019-04-16T13:15:12.514Z,37.25
2019-04-16T13:18:05.455Z,37.35
2019-04-16T13:20:57.874Z,37.38
2019-04-16T13:23:36.844Z,37.58
2019-04-16T13:26:30.614Z,37.80
2019-04-16T13:29:08.558Z,36.65
2019-04-16T13:31:43.258Z,36.88
2019-04-16T13:34:18.773Z,36.30
2019-04-16T13:36:59.364Z,35.68
2019-04-16T13:39:40.378Z,35.52
2019-04-16T13:42:15.406Z,35.17
2019-04-16T13:45:15.165Z,35.17
2019-04-16T13:47:46.007Z,34.95
2019-04-16T13:50:28.022Z,35.83
2019-04-16T13:53:08.564Z,35.68
2019-04-16T13:56:05.461Z,35.10
2019-04-16T13:58:45.818Z,34.38
2019-04-16T14:01:23.303Z,34.48
2019-04-16T14:03:58.032Z,34.70
2019-04-16T14:06:32.726Z,34.53
2019-04-16T14:09:08.472Z,36.65
2019-04-16T14:11:43.622Z,40.65
2019-04-16T14:14:20.722Z,39.23
2019-04-16T14:16:55.806Z,39.15
2019-04-16T14:19:30.730Z,39.05
2019-04-16T14:22:05.587Z,38.58
2019-04-16T14:24:40.372Z,39.33
2019-04-16T14:27:15.147Z,40.80
2019-04-16T14:29:50.039Z,40.70
2019-04-16T14:32:24.738Z,40.48
2019-04-16T14:35:01.139Z,39.45
2019-04-16T14:37:36.834Z,39.98
2019-04-16T14:40:25.941Z,39.73
2019-04-16T14:43:00.631Z,38.85
2019-04-16T14:45:56.871Z,40.30
2019-04-16T14:48:18.567Z,39.23
2019-04-16T14:50:53.551Z,40.52
2019-04-16T14:53:52.788Z,39.70
2019-04-16T14:56:38.590Z,40.20
2019-04-16T14:59:30.460Z,40.23
2019-04-16T15:02:00.134Z,41.02
2019-04-16T15:04:58.278Z,38.73
2019-04-16T15:07:47.155Z,39.13
2019-04-16T15:10:39.883Z,38.47
2019-04-16T15:13:18.411Z,38.98
2019-04-16T15:16:10.786Z,39.30
2019-04-16T15:18:54.976Z,39.95
2019-04-16T15:21:47.557Z,39.33
2019-04-16T15:24:41.342Z,39.05
2019-04-16T15:27:31.816Z,39.03
2019-04-16T15:30:28.305Z,42.65
2019-04-16T15:33:19.150Z,41.88
2019-04-16T15:36:00.605Z,38.80
2019-04-16T15:38:54.538Z,39.40
2019-04-16T15:41:51.084Z,38.58
2019-04-16T15:44:48.318Z,38.70
2019-04-16T15:47:58.249Z,38.40
2019-04-16T15:50:47.658Z,38.28
2019-04-16T15:53:40.999Z,38.40
2019-04-16T15:56:34.942Z,36.98
2019-04-16T15:59:15.121Z,36.45
2019-04-16T16:02:12.220Z,37.23
2019-04-16T16:05:08.983Z,36.50
2019-04-16T16:07:57.174Z,35.33
2019-04-16T16:10:39.165Z,34.78
2019-04-16T16:13:13.878Z,34.83
2019-04-16T16:15:48.672Z,35.23
2019-04-16T16:18:23.479Z,34.98
2019-04-16T16:20:58.267Z,35.33
2019-04-16T16:23:34.287Z,34.90
2019-04-16T16:26:09.214Z,35.83
2019-04-16T16:28:43.907Z,35.23
2019-04-16T16:31:18.708Z,36.28
2019-04-16T16:33:53.479Z,35.08
2019-04-16T16:36:28.266Z,34.92
2019-04-16T16:39:03.630Z,34.98
2019-04-16T16:41:40.018Z,35.50
2019-04-16T16:44:14.730Z,35.05
2019-04-16T16:47:11.620Z,36.00
2019-04-16T16:49:46.617Z,35.90
2019-04-16T16:52:41.642Z,36.33
2019-04-16T16:55:26.305Z,37.97
2019-04-16T16:58:08.571Z,35.43
2019-04-16T17:00:48.970Z,34.98
2019-04-16T17:03:46.392Z,35.17
2019-04-16T17:06:25.933Z,36.70
2019-04-16T17:09:01.114Z,37.30
2019-04-16T17:11:40.142Z,37.70
2019-04-16T17:14:14.261Z,39.13
2019-04-16T17:16:48.994Z,36.17
2019-04-16T17:19:23.862Z,35.43
2019-04-16T17:21:58.606Z,39.33
2019-04-16T17:24:33.459Z,40.55
2019-04-16T17:27:08.463Z,38.78
2019-04-16T17:29:43.277Z,52.15
2019-04-16T17:32:18.231Z,39.55
2019-04-16T17:34:53.659Z,37.63
2019-04-16T17:37:28.946Z,50.83
2019-04-16T17:40:16.128Z,39.05
2019-04-16T17:42:51.850Z,36.13
2019-04-16T17:45:44.558Z,35.03
2019-04-16T17:48:53.707Z,35.80
2019-04-16T17:51:54.628Z,35.05
2019-04-16T17:54:34.739Z,35.63
2019-04-16T17:57:30.151Z,35.88
2019-04-16T18:00:28.859Z,36.68
2019-04-16T18:03:28.768Z,35.35
2019-04-16T18:06:09.318Z,34.92
2019-04-16T18:09:08.420Z,35.60
2019-04-16T18:12:02.554Z,35.95
2019-04-16T18:14:55.277Z,35.95
2019-04-16T18:17:46.775Z,35.23
2019-04-16T18:20:34.863Z,36.73
2019-04-16T18:23:29.155Z,35.83
2019-04-16T18:26:21.654Z,35.60
2019-04-16T18:29:02.737Z,35.73
2019-04-16T18:31:59.549Z,38.13
2019-04-16T18:34:59.163Z,37.17
2019-04-16T18:37:51.823Z,36.98
2019-04-16T18:40:49.622Z,36.58
2019-04-16T18:43:42.279Z,37.58
2019-04-16T18:46:21.408Z,37.42
2019-04-16T18:49:03.099Z,36.75
2019-04-16T18:51:38.196Z,35.58
2019-04-16T18:54:15.132Z,36.70
2019-04-16T18:56:49.406Z,36.45
2019-04-16T18:59:24.110Z,35.33
2019-04-16T19:02:02.611Z,35.65
2019-04-16T19:04:37.401Z,35.88
2019-04-16T19:07:12.154Z,35.58
2019-04-16T19:09:46.874Z,35.33
2019-04-16T19:12:21.606Z,35.63
2019-04-16T19:14:56.488Z,36.53
2019-04-16T19:17:34.490Z,36.05
2019-04-16T19:20:09.284Z,37.10
2019-04-16T19:22:46.538Z,35.75
2019-04-16T19:25:20.475Z,35.37
2019-04-16T19:27:55.261Z,35.20
2019-04-16T19:30:29.989Z,35.80
2019-04-16T19:33:04.835Z,35.48
2019-04-16T19:35:39.652Z,35.03
2019-04-16T19:38:14.350Z,35.20
2019-04-16T19:40:50.862Z,35.85
2019-04-16T19:43:28.258Z,35.68
2019-04-16T19:46:03.136Z,35.73
2019-04-16T19:48:37.921Z,35.92
2019-04-16T19:51:12.651Z,36.33
2019-04-16T19:53:48.429Z,39.58
2019-04-16T19:56:23.574Z,40.70
2019-04-16T19:58:58.510Z,38.17
2019-04-16T20:01:33.306Z,37.13
2019-04-16T20:04:10.670Z,35.28
2019-04-16T20:06:44.593Z,35.40
2019-04-16T20:09:19.456Z,35.10
2019-04-16T20:11:55.441Z,34.67
2019-04-16T20:14:35.241Z,34.40
2019-04-16T20:17:07.137Z,33.95
2019-04-16T20:20:00.568Z,34.63
2019-04-16T20:22:35.432Z,33.67
2019-04-16T20:25:10.301Z,34.58
2019-04-16T20:27:46.027Z,34.92
2019-04-16T20:30:23.568Z,35.20
2019-04-16T20:32:57.244Z,34.78
2019-04-16T20:35:32.102Z,34.35
2019-04-16T20:38:06.812Z,34.15
2019-04-16T20:40:41.610Z,34.08
2019-04-16T20:43:16.306Z,33.55
2019-04-16T20:45:51.101Z,33.95
2019-04-16T20:48:25.794Z,34.08
2019-04-16T20:51:00.517Z,34.60
2019-04-16T20:53:38.124Z,34.45
2019-04-16T20:56:11.654Z,34.00
2019-04-16T20:58:46.438Z,34.10
2019-04-16T21:01:33.885Z,34.78
2019-04-16T21:04:04.543Z,33.80
2019-04-16T21:06:34.114Z,33.90
2019-04-16T21:09:08.890Z,33.35
2019-04-16T21:11:45.310Z,34.03
2019-04-16T21:14:21.868Z,33.53
2019-04-16T21:16:56.460Z,33.53
2019-04-16T21:19:47.836Z,32.85
2019-04-16T21:22:24.949Z,34.83
2019-04-16T21:24:59.151Z,34.55
2019-04-16T21:27:37.185Z,34.80
2019-04-16T21:30:13.256Z,35.07
2019-04-16T21:32:53.960Z,34.80
2019-04-16T21:35:32.762Z,34.43
2019-04-16T21:38:29.863Z,34.27
2019-04-16T21:41:04.561Z,34.30
2019-04-16T21:43:39.588Z,34.00
2019-04-16T21:46:20.165Z,33.78
2019-04-16T21:48:51.554Z,34.18
2019-04-16T21:51:26.326Z,33.78
2019-04-16T21:54:01.045Z,34.53
2019-04-16T21:56:36.890Z,34.33
2019-04-16T21:59:12.147Z,35.25
2019-04-16T22:01:47.090Z,35.50
2019-04-16T22:04:21.982Z,36.37
2019-04-16T22:06:56.898Z,35.83
2019-04-16T22:09:31.662Z,36.15
2019-04-16T22:12:06.529Z,35.85
2019-04-16T22:14:41.306Z,36.50
2019-04-16T22:17:16.161Z,35.95
2019-04-16T22:19:54.334Z,36.15
2019-04-16T22:22:28.016Z,36.35
2019-04-16T22:25:02.850Z,35.70
2019-04-16T22:27:39.779Z,35.83
2019-04-16T22:30:19.129Z,36.20
2019-04-16T22:32:51.515Z,35.60
2019-04-16T22:35:26.208Z,35.85
2019-04-16T22:38:00.989Z,35.80
2019-04-16T22:40:51.577Z,35.25
2019-04-16T22:44:01.253Z,35.98
2019-04-16T22:46:42.117Z,36.20
2019-04-16T22:49:18.604Z,36.28
2019-04-16T22:51:53.338Z,36.42
2019-04-16T22:54:28.152Z,36.73
2019-04-16T22:57:05.154Z,36.60
2019-04-16T22:59:40.161Z,37.15
2019-04-16T23:02:33.212Z,37.83
2019-04-16T23:05:08.004Z,36.53
2019-04-16T23:07:42.704Z,36.95
2019-04-16T23:10:17.835Z,37.17
2019-04-16T23:12:59.508Z,36.98
2019-04-16T23:15:30.254Z,36.80
2019-04-16T23:18:05.114Z,36.73
2019-04-16T23:20:42.551Z,37.78
2019-04-16T23:23:19.041Z,37.63
2019-04-16T23:25:53.676Z,37.37
2019-04-16T23:28:28.463Z,38.57
2019-04-16T23:31:03.596Z,37.63
2019-04-16T23:33:38.516Z,39.03
2019-04-16T23:36:16.567Z,36.85
2019-04-16T23:38:49.613Z,38.00
2019-04-16T23:41:24.303Z,38.05
2019-04-16T23:44:17.086Z,37.93
2019-04-16T23:47:19.329Z,38.10
2019-04-16T23:50:03.082Z,37.97
2019-04-16T23:52:44.810Z,38.25
2019-04-16T23:55:28.465Z,38.77
2019-04-16T23:58:16.807Z,38.83
